<?xml version="1.0" encoding="UTF-8" standalone="no" ?>
<gpx xmlns="http://www.topografix.com/GPX/1/1" xmlns:xsi="http://www.w3.org/2001/XMLSchema-instance" xsi:schemaLocation="http://www.topografix.com/GPX/1/1 http://www.topografix.com/GPX/1/1/gpx.xsd" version="1.1" creator="VisuGPX - https://www.visugpx.com">
  <metadata>
    <name>83-Ve-St Paul en Forêt</name>
    <desc><![CDATA[grp_trc:[visibles]]]></desc>
  </metadata>
  <trk>
    <name><![CDATA[St Paul en forêt 1 mars 2024]]></name>
    <cmt><![CDATA[14:25:19]]></cmt>
    <desc><![CDATA[comment ...]]></desc>
    <trkseg>
      <trkpt lat="43.56971" lon="6.66103">
        <ele>215</ele>
        <time>2024-03-01T13:25:18Z</time>
      </trkpt>
      <trkpt lat="43.56971" lon="6.66103">
        <ele>215</ele>
        <time>2024-03-01T13:25:19Z</time>
      </trkpt>
      <trkpt lat="43.56968" lon="6.66099">
        <ele>215</ele>
        <time>2024-03-01T13:25:43Z</time>
      </trkpt>
      <trkpt lat="43.56963" lon="6.66097">
        <ele>215</ele>
        <time>2024-03-01T13:25:47Z</time>
      </trkpt>
      <trkpt lat="43.56959" lon="6.66095">
        <ele>215</ele>
        <time>2024-03-01T13:27:10Z</time>
      </trkpt>
      <trkpt lat="43.56946" lon="6.66091">
        <ele>215</ele>
        <time>2024-03-01T13:27:23Z</time>
      </trkpt>
      <trkpt lat="43.56942" lon="6.66089">
        <ele>215</ele>
        <time>2024-03-01T13:27:27Z</time>
      </trkpt>
      <trkpt lat="43.56912" lon="6.66089">
        <ele>216</ele>
        <time>2024-03-01T13:27:58Z</time>
      </trkpt>
      <trkpt lat="43.56891" lon="6.66084">
        <ele>213</ele>
        <time>2024-03-01T13:28:19Z</time>
      </trkpt>
      <trkpt lat="43.56885" lon="6.66077">
        <ele>212</ele>
        <time>2024-03-01T13:28:27Z</time>
      </trkpt>
      <trkpt lat="43.56881" lon="6.66069">
        <ele>212</ele>
        <time>2024-03-01T13:28:34Z</time>
      </trkpt>
      <trkpt lat="43.56876" lon="6.66039">
        <ele>213</ele>
        <time>2024-03-01T13:28:55Z</time>
      </trkpt>
      <trkpt lat="43.5687" lon="6.66032">
        <ele>213</ele>
        <time>2024-03-01T13:29:01Z</time>
      </trkpt>
      <trkpt lat="43.56863" lon="6.66029">
        <ele>213</ele>
        <time>2024-03-01T13:29:08Z</time>
      </trkpt>
      <trkpt lat="43.56857" lon="6.66033">
        <ele>213</ele>
        <time>2024-03-01T13:29:15Z</time>
      </trkpt>
      <trkpt lat="43.56851" lon="6.66036">
        <ele>212</ele>
        <time>2024-03-01T13:29:22Z</time>
      </trkpt>
      <trkpt lat="43.56836" lon="6.66034">
        <ele>212</ele>
        <time>2024-03-01T13:29:36Z</time>
      </trkpt>
      <trkpt lat="43.56822" lon="6.66031">
        <ele>212</ele>
        <time>2024-03-01T13:29:47Z</time>
      </trkpt>
      <trkpt lat="43.56815" lon="6.66027">
        <ele>212</ele>
        <time>2024-03-01T13:29:54Z</time>
      </trkpt>
      <trkpt lat="43.5681" lon="6.6602">
        <ele>214</ele>
        <time>2024-03-01T13:29:59Z</time>
      </trkpt>
      <trkpt lat="43.56808" lon="6.66009">
        <ele>214</ele>
        <time>2024-03-01T13:30:05Z</time>
      </trkpt>
      <trkpt lat="43.56804" lon="6.66001">
        <ele>215</ele>
        <time>2024-03-01T13:30:15Z</time>
      </trkpt>
      <trkpt lat="43.56792" lon="6.65993">
        <ele>215</ele>
        <time>2024-03-01T13:30:27Z</time>
      </trkpt>
      <trkpt lat="43.56785" lon="6.65991">
        <ele>215</ele>
        <time>2024-03-01T13:30:33Z</time>
      </trkpt>
      <trkpt lat="43.56778" lon="6.65984">
        <ele>214</ele>
        <time>2024-03-01T13:30:39Z</time>
      </trkpt>
      <trkpt lat="43.56775" lon="6.65976">
        <ele>213</ele>
        <time>2024-03-01T13:30:45Z</time>
      </trkpt>
      <trkpt lat="43.56773" lon="6.65968">
        <ele>212</ele>
        <time>2024-03-01T13:30:52Z</time>
      </trkpt>
      <trkpt lat="43.56767" lon="6.65939">
        <ele>212</ele>
        <time>2024-03-01T13:31:13Z</time>
      </trkpt>
      <trkpt lat="43.56763" lon="6.6593">
        <ele>212</ele>
        <time>2024-03-01T13:31:19Z</time>
      </trkpt>
      <trkpt lat="43.56761" lon="6.65921">
        <ele>211</ele>
        <time>2024-03-01T13:31:26Z</time>
      </trkpt>
      <trkpt lat="43.56761" lon="6.65914">
        <ele>210</ele>
        <time>2024-03-01T13:31:43Z</time>
      </trkpt>
      <trkpt lat="43.56752" lon="6.65896">
        <ele>211</ele>
        <time>2024-03-01T13:32:12Z</time>
      </trkpt>
      <trkpt lat="43.56747" lon="6.65891">
        <ele>212</ele>
        <time>2024-03-01T13:32:18Z</time>
      </trkpt>
      <trkpt lat="43.56741" lon="6.65885">
        <ele>213</ele>
        <time>2024-03-01T13:32:24Z</time>
      </trkpt>
      <trkpt lat="43.56734" lon="6.65878">
        <ele>212</ele>
        <time>2024-03-01T13:32:30Z</time>
      </trkpt>
      <trkpt lat="43.56727" lon="6.65874">
        <ele>211</ele>
        <time>2024-03-01T13:32:38Z</time>
      </trkpt>
      <trkpt lat="43.5672" lon="6.65867">
        <ele>209</ele>
        <time>2024-03-01T13:32:44Z</time>
      </trkpt>
      <trkpt lat="43.56714" lon="6.65859">
        <ele>208</ele>
        <time>2024-03-01T13:32:51Z</time>
      </trkpt>
      <trkpt lat="43.5671" lon="6.65853">
        <ele>206</ele>
        <time>2024-03-01T13:32:55Z</time>
      </trkpt>
      <trkpt lat="43.56707" lon="6.65849">
        <ele>205</ele>
        <time>2024-03-01T13:32:59Z</time>
      </trkpt>
      <trkpt lat="43.56702" lon="6.65844">
        <ele>203</ele>
        <time>2024-03-01T13:33:03Z</time>
      </trkpt>
      <trkpt lat="43.56694" lon="6.65835">
        <ele>200</ele>
        <time>2024-03-01T13:33:12Z</time>
      </trkpt>
      <trkpt lat="43.56691" lon="6.65831">
        <ele>200</ele>
        <time>2024-03-01T13:33:16Z</time>
      </trkpt>
      <trkpt lat="43.56688" lon="6.65825">
        <ele>200</ele>
        <time>2024-03-01T13:33:21Z</time>
      </trkpt>
      <trkpt lat="43.56685" lon="6.6582">
        <ele>199</ele>
        <time>2024-03-01T13:33:28Z</time>
      </trkpt>
      <trkpt lat="43.56682" lon="6.65815">
        <ele>198</ele>
        <time>2024-03-01T13:33:30Z</time>
      </trkpt>
      <trkpt lat="43.56674" lon="6.65809">
        <ele>198</ele>
        <time>2024-03-01T13:33:39Z</time>
      </trkpt>
      <trkpt lat="43.56658" lon="6.658">
        <ele>199</ele>
        <time>2024-03-01T13:33:53Z</time>
      </trkpt>
      <trkpt lat="43.56654" lon="6.65796">
        <ele>199</ele>
        <time>2024-03-01T13:33:56Z</time>
      </trkpt>
      <trkpt lat="43.5665" lon="6.6579">
        <ele>200</ele>
        <time>2024-03-01T13:34:01Z</time>
      </trkpt>
      <trkpt lat="43.56647" lon="6.65786">
        <ele>201</ele>
        <time>2024-03-01T13:34:05Z</time>
      </trkpt>
      <trkpt lat="43.56638" lon="6.65781">
        <ele>201</ele>
        <time>2024-03-01T13:34:14Z</time>
      </trkpt>
      <trkpt lat="43.56634" lon="6.65776">
        <ele>201</ele>
        <time>2024-03-01T13:34:19Z</time>
      </trkpt>
      <trkpt lat="43.56631" lon="6.65771">
        <ele>200</ele>
        <time>2024-03-01T13:34:24Z</time>
      </trkpt>
      <trkpt lat="43.56627" lon="6.65767">
        <ele>199</ele>
        <time>2024-03-01T13:34:29Z</time>
      </trkpt>
      <trkpt lat="43.56623" lon="6.65764">
        <ele>199</ele>
        <time>2024-03-01T13:34:34Z</time>
      </trkpt>
      <trkpt lat="43.56619" lon="6.65761">
        <ele>199</ele>
        <time>2024-03-01T13:34:39Z</time>
      </trkpt>
      <trkpt lat="43.56614" lon="6.65756">
        <ele>201</ele>
        <time>2024-03-01T13:34:47Z</time>
      </trkpt>
      <trkpt lat="43.56611" lon="6.6575">
        <ele>202</ele>
        <time>2024-03-01T13:34:51Z</time>
      </trkpt>
      <trkpt lat="43.5661" lon="6.65742">
        <ele>201</ele>
        <time>2024-03-01T13:34:57Z</time>
      </trkpt>
      <trkpt lat="43.56611" lon="6.65735">
        <ele>201</ele>
        <time>2024-03-01T13:35:05Z</time>
      </trkpt>
      <trkpt lat="43.56613" lon="6.65727">
        <ele>202</ele>
        <time>2024-03-01T13:35:12Z</time>
      </trkpt>
      <trkpt lat="43.56616" lon="6.65718">
        <ele>202</ele>
        <time>2024-03-01T13:35:17Z</time>
      </trkpt>
      <trkpt lat="43.56618" lon="6.65712">
        <ele>203</ele>
        <time>2024-03-01T13:35:22Z</time>
      </trkpt>
      <trkpt lat="43.56628" lon="6.65691">
        <ele>205</ele>
        <time>2024-03-01T13:35:35Z</time>
      </trkpt>
      <trkpt lat="43.56633" lon="6.65688">
        <ele>206</ele>
        <time>2024-03-01T13:35:42Z</time>
      </trkpt>
      <trkpt lat="43.56637" lon="6.65685">
        <ele>206</ele>
        <time>2024-03-01T13:35:45Z</time>
      </trkpt>
      <trkpt lat="43.56642" lon="6.65684">
        <ele>207</ele>
        <time>2024-03-01T13:35:49Z</time>
      </trkpt>
      <trkpt lat="43.56647" lon="6.65685">
        <ele>207</ele>
        <time>2024-03-01T13:35:56Z</time>
      </trkpt>
      <trkpt lat="43.56651" lon="6.65685">
        <ele>206</ele>
        <time>2024-03-01T13:36:02Z</time>
      </trkpt>
      <trkpt lat="43.56657" lon="6.65684">
        <ele>206</ele>
        <time>2024-03-01T13:36:06Z</time>
      </trkpt>
      <trkpt lat="43.56661" lon="6.65683">
        <ele>205</ele>
        <time>2024-03-01T13:36:13Z</time>
      </trkpt>
      <trkpt lat="43.56666" lon="6.65682">
        <ele>206</ele>
        <time>2024-03-01T13:36:17Z</time>
      </trkpt>
      <trkpt lat="43.56671" lon="6.65681">
        <ele>206</ele>
        <time>2024-03-01T13:36:21Z</time>
      </trkpt>
      <trkpt lat="43.56675" lon="6.6568">
        <ele>206</ele>
        <time>2024-03-01T13:36:26Z</time>
      </trkpt>
      <trkpt lat="43.56684" lon="6.65677">
        <ele>208</ele>
        <time>2024-03-01T13:36:39Z</time>
      </trkpt>
      <trkpt lat="43.56695" lon="6.65676">
        <ele>209</ele>
        <time>2024-03-01T13:36:52Z</time>
      </trkpt>
      <trkpt lat="43.56701" lon="6.65674">
        <ele>209</ele>
        <time>2024-03-01T13:36:57Z</time>
      </trkpt>
      <trkpt lat="43.56711" lon="6.65667">
        <ele>212</ele>
        <time>2024-03-01T13:37:11Z</time>
      </trkpt>
      <trkpt lat="43.56716" lon="6.65666">
        <ele>212</ele>
        <time>2024-03-01T13:37:17Z</time>
      </trkpt>
      <trkpt lat="43.56725" lon="6.65659">
        <ele>212</ele>
        <time>2024-03-01T13:37:31Z</time>
      </trkpt>
      <trkpt lat="43.56732" lon="6.6565">
        <ele>211</ele>
        <time>2024-03-01T13:37:39Z</time>
      </trkpt>
      <trkpt lat="43.56736" lon="6.65645">
        <ele>212</ele>
        <time>2024-03-01T13:37:44Z</time>
      </trkpt>
      <trkpt lat="43.56738" lon="6.65639">
        <ele>212</ele>
        <time>2024-03-01T13:37:50Z</time>
      </trkpt>
      <trkpt lat="43.56741" lon="6.65634">
        <ele>213</ele>
        <time>2024-03-01T13:37:57Z</time>
      </trkpt>
      <trkpt lat="43.56748" lon="6.65622">
        <ele>214</ele>
        <time>2024-03-01T13:38:08Z</time>
      </trkpt>
      <trkpt lat="43.56752" lon="6.65618">
        <ele>214</ele>
        <time>2024-03-01T13:38:12Z</time>
      </trkpt>
      <trkpt lat="43.56765" lon="6.65607">
        <ele>216</ele>
        <time>2024-03-01T13:38:27Z</time>
      </trkpt>
      <trkpt lat="43.56772" lon="6.65598">
        <ele>216</ele>
        <time>2024-03-01T13:38:37Z</time>
      </trkpt>
      <trkpt lat="43.56776" lon="6.6559">
        <ele>216</ele>
        <time>2024-03-01T13:38:44Z</time>
      </trkpt>
      <trkpt lat="43.56782" lon="6.65578">
        <ele>216</ele>
        <time>2024-03-01T13:38:51Z</time>
      </trkpt>
      <trkpt lat="43.56784" lon="6.65573">
        <ele>216</ele>
        <time>2024-03-01T13:38:59Z</time>
      </trkpt>
      <trkpt lat="43.56792" lon="6.65561">
        <ele>216</ele>
        <time>2024-03-01T13:39:07Z</time>
      </trkpt>
      <trkpt lat="43.56798" lon="6.65549">
        <ele>216</ele>
        <time>2024-03-01T13:39:17Z</time>
      </trkpt>
      <trkpt lat="43.56801" lon="6.65544">
        <ele>217</ele>
        <time>2024-03-01T13:39:21Z</time>
      </trkpt>
      <trkpt lat="43.56804" lon="6.65537">
        <ele>217</ele>
        <time>2024-03-01T13:39:27Z</time>
      </trkpt>
      <trkpt lat="43.56807" lon="6.65532">
        <ele>217</ele>
        <time>2024-03-01T13:39:30Z</time>
      </trkpt>
      <trkpt lat="43.56809" lon="6.65526">
        <ele>217</ele>
        <time>2024-03-01T13:39:36Z</time>
      </trkpt>
      <trkpt lat="43.56812" lon="6.6552">
        <ele>217</ele>
        <time>2024-03-01T13:39:40Z</time>
      </trkpt>
      <trkpt lat="43.56814" lon="6.65514">
        <ele>217</ele>
        <time>2024-03-01T13:39:44Z</time>
      </trkpt>
      <trkpt lat="43.56816" lon="6.65509">
        <ele>218</ele>
        <time>2024-03-01T13:39:47Z</time>
      </trkpt>
      <trkpt lat="43.56818" lon="6.65503">
        <ele>218</ele>
        <time>2024-03-01T13:39:51Z</time>
      </trkpt>
      <trkpt lat="43.5682" lon="6.65497">
        <ele>219</ele>
        <time>2024-03-01T13:39:55Z</time>
      </trkpt>
      <trkpt lat="43.56824" lon="6.65492">
        <ele>220</ele>
        <time>2024-03-01T13:40:00Z</time>
      </trkpt>
      <trkpt lat="43.56827" lon="6.65487">
        <ele>221</ele>
        <time>2024-03-01T13:40:06Z</time>
      </trkpt>
      <trkpt lat="43.56828" lon="6.65481">
        <ele>222</ele>
        <time>2024-03-01T13:40:13Z</time>
      </trkpt>
      <trkpt lat="43.5683" lon="6.65475">
        <ele>222</ele>
        <time>2024-03-01T13:40:18Z</time>
      </trkpt>
      <trkpt lat="43.56832" lon="6.65469">
        <ele>222</ele>
        <time>2024-03-01T13:40:23Z</time>
      </trkpt>
      <trkpt lat="43.56833" lon="6.65463">
        <ele>222</ele>
        <time>2024-03-01T13:40:27Z</time>
      </trkpt>
      <trkpt lat="43.56833" lon="6.65456">
        <ele>222</ele>
        <time>2024-03-01T13:40:31Z</time>
      </trkpt>
      <trkpt lat="43.56836" lon="6.6545">
        <ele>221</ele>
        <time>2024-03-01T13:41:48Z</time>
      </trkpt>
      <trkpt lat="43.5684" lon="6.65442">
        <ele>221</ele>
        <time>2024-03-01T13:41:55Z</time>
      </trkpt>
      <trkpt lat="43.56847" lon="6.65394">
        <ele>218</ele>
        <time>2024-03-01T13:42:27Z</time>
      </trkpt>
      <trkpt lat="43.56855" lon="6.65342">
        <ele>219</ele>
        <time>2024-03-01T13:42:59Z</time>
      </trkpt>
      <trkpt lat="43.56872" lon="6.65294">
        <ele>219</ele>
        <time>2024-03-01T13:43:33Z</time>
      </trkpt>
      <trkpt lat="43.56876" lon="6.65284">
        <ele>218</ele>
        <time>2024-03-01T13:43:40Z</time>
      </trkpt>
      <trkpt lat="43.56879" lon="6.6526">
        <ele>216</ele>
        <time>2024-03-01T13:43:55Z</time>
      </trkpt>
      <trkpt lat="43.56872" lon="6.65204">
        <ele>215</ele>
        <time>2024-03-01T13:44:32Z</time>
      </trkpt>
      <trkpt lat="43.56872" lon="6.6518">
        <ele>212</ele>
        <time>2024-03-01T13:44:47Z</time>
      </trkpt>
      <trkpt lat="43.56874" lon="6.65151">
        <ele>211</ele>
        <time>2024-03-01T13:45:06Z</time>
      </trkpt>
      <trkpt lat="43.56872" lon="6.65099">
        <ele>210</ele>
        <time>2024-03-01T13:45:38Z</time>
      </trkpt>
      <trkpt lat="43.56874" lon="6.65072">
        <ele>209</ele>
        <time>2024-03-01T13:45:54Z</time>
      </trkpt>
      <trkpt lat="43.56877" lon="6.65059">
        <ele>207</ele>
        <time>2024-03-01T13:46:02Z</time>
      </trkpt>
      <trkpt lat="43.56882" lon="6.65004">
        <ele>206</ele>
        <time>2024-03-01T13:46:35Z</time>
      </trkpt>
      <trkpt lat="43.56883" lon="6.64989">
        <ele>205</ele>
        <time>2024-03-01T13:46:44Z</time>
      </trkpt>
      <trkpt lat="43.56879" lon="6.64961">
        <ele>202</ele>
        <time>2024-03-01T13:47:02Z</time>
      </trkpt>
      <trkpt lat="43.5688" lon="6.64946">
        <ele>202</ele>
        <time>2024-03-01T13:47:12Z</time>
      </trkpt>
      <trkpt lat="43.56882" lon="6.64918">
        <ele>201</ele>
        <time>2024-03-01T13:47:28Z</time>
      </trkpt>
      <trkpt lat="43.56881" lon="6.64907">
        <ele>201</ele>
        <time>2024-03-01T13:47:35Z</time>
      </trkpt>
      <trkpt lat="43.56876" lon="6.64895">
        <ele>202</ele>
        <time>2024-03-01T13:47:44Z</time>
      </trkpt>
      <trkpt lat="43.56862" lon="6.64836">
        <ele>202</ele>
        <time>2024-03-01T13:48:22Z</time>
      </trkpt>
      <trkpt lat="43.56851" lon="6.64786">
        <ele>200</ele>
        <time>2024-03-01T13:48:53Z</time>
      </trkpt>
      <trkpt lat="43.56845" lon="6.64765">
        <ele>201</ele>
        <time>2024-03-01T13:49:07Z</time>
      </trkpt>
      <trkpt lat="43.56847" lon="6.6476">
        <ele>201</ele>
        <time>2024-03-01T13:49:17Z</time>
      </trkpt>
      <trkpt lat="43.56841" lon="6.64751">
        <ele>201</ele>
        <time>2024-03-01T13:50:07Z</time>
      </trkpt>
      <trkpt lat="43.56844" lon="6.64714">
        <ele>197</ele>
        <time>2024-03-01T13:51:03Z</time>
      </trkpt>
      <trkpt lat="43.56851" lon="6.64686">
        <ele>197</ele>
        <time>2024-03-01T13:51:34Z</time>
      </trkpt>
      <trkpt lat="43.56855" lon="6.64662">
        <ele>199</ele>
        <time>2024-03-01T13:51:58Z</time>
      </trkpt>
      <trkpt lat="43.56866" lon="6.64629">
        <ele>202</ele>
        <time>2024-03-01T13:52:29Z</time>
      </trkpt>
      <trkpt lat="43.56871" lon="6.64605">
        <ele>205</ele>
        <time>2024-03-01T13:52:49Z</time>
      </trkpt>
      <trkpt lat="43.56872" lon="6.64596">
        <ele>205</ele>
        <time>2024-03-01T13:52:56Z</time>
      </trkpt>
      <trkpt lat="43.56873" lon="6.64587">
        <ele>205</ele>
        <time>2024-03-01T13:53:12Z</time>
      </trkpt>
      <trkpt lat="43.56884" lon="6.6456">
        <ele>205</ele>
        <time>2024-03-01T13:53:33Z</time>
      </trkpt>
      <trkpt lat="43.56886" lon="6.64551">
        <ele>206</ele>
        <time>2024-03-01T13:53:40Z</time>
      </trkpt>
      <trkpt lat="43.56885" lon="6.64541">
        <ele>206</ele>
        <time>2024-03-01T13:53:46Z</time>
      </trkpt>
      <trkpt lat="43.56876" lon="6.64524">
        <ele>207</ele>
        <time>2024-03-01T13:54:03Z</time>
      </trkpt>
      <trkpt lat="43.56869" lon="6.64481">
        <ele>208</ele>
        <time>2024-03-01T13:54:35Z</time>
      </trkpt>
      <trkpt lat="43.56868" lon="6.64472">
        <ele>210</ele>
        <time>2024-03-01T13:54:42Z</time>
      </trkpt>
      <trkpt lat="43.56869" lon="6.64463">
        <ele>211</ele>
        <time>2024-03-01T13:54:49Z</time>
      </trkpt>
      <trkpt lat="43.56887" lon="6.64411">
        <ele>209</ele>
        <time>2024-03-01T13:55:25Z</time>
      </trkpt>
      <trkpt lat="43.56891" lon="6.64404">
        <ele>208</ele>
        <time>2024-03-01T13:55:32Z</time>
      </trkpt>
      <trkpt lat="43.56895" lon="6.64396">
        <ele>209</ele>
        <time>2024-03-01T13:55:47Z</time>
      </trkpt>
      <trkpt lat="43.56903" lon="6.64387">
        <ele>209</ele>
        <time>2024-03-01T13:55:56Z</time>
      </trkpt>
      <trkpt lat="43.5691" lon="6.64382">
        <ele>208</ele>
        <time>2024-03-01T13:56:04Z</time>
      </trkpt>
      <trkpt lat="43.56925" lon="6.64365">
        <ele>209</ele>
        <time>2024-03-01T13:56:22Z</time>
      </trkpt>
      <trkpt lat="43.56932" lon="6.64361">
        <ele>209</ele>
        <time>2024-03-01T13:56:29Z</time>
      </trkpt>
      <trkpt lat="43.5694" lon="6.64357">
        <ele>209</ele>
        <time>2024-03-01T13:56:38Z</time>
      </trkpt>
      <trkpt lat="43.56947" lon="6.64357">
        <ele>210</ele>
        <time>2024-03-01T13:56:44Z</time>
      </trkpt>
      <trkpt lat="43.56954" lon="6.64358">
        <ele>210</ele>
        <time>2024-03-01T13:56:49Z</time>
      </trkpt>
      <trkpt lat="43.56959" lon="6.64363">
        <ele>209</ele>
        <time>2024-03-01T13:56:54Z</time>
      </trkpt>
      <trkpt lat="43.56964" lon="6.64368">
        <ele>209</ele>
        <time>2024-03-01T13:57:00Z</time>
      </trkpt>
      <trkpt lat="43.5697" lon="6.64375">
        <ele>207</ele>
        <time>2024-03-01T13:57:07Z</time>
      </trkpt>
      <trkpt lat="43.5698" lon="6.64378">
        <ele>208</ele>
        <time>2024-03-01T13:57:18Z</time>
      </trkpt>
      <trkpt lat="43.56987" lon="6.64371">
        <ele>208</ele>
        <time>2024-03-01T13:57:34Z</time>
      </trkpt>
      <trkpt lat="43.56988" lon="6.64362">
        <ele>211</ele>
        <time>2024-03-01T13:57:41Z</time>
      </trkpt>
      <trkpt lat="43.57002" lon="6.64333">
        <ele>211</ele>
        <time>2024-03-01T13:58:03Z</time>
      </trkpt>
      <trkpt lat="43.5702" lon="6.64312">
        <ele>210</ele>
        <time>2024-03-01T13:58:24Z</time>
      </trkpt>
      <trkpt lat="43.57028" lon="6.64305">
        <ele>211</ele>
        <time>2024-03-01T13:58:37Z</time>
      </trkpt>
      <trkpt lat="43.57037" lon="6.64299">
        <ele>212</ele>
        <time>2024-03-01T13:58:57Z</time>
      </trkpt>
      <trkpt lat="43.57045" lon="6.64295">
        <ele>211</ele>
        <time>2024-03-01T13:59:08Z</time>
      </trkpt>
      <trkpt lat="43.57056" lon="6.64288">
        <ele>212</ele>
        <time>2024-03-01T13:59:22Z</time>
      </trkpt>
      <trkpt lat="43.57081" lon="6.64281">
        <ele>214</ele>
        <time>2024-03-01T13:59:43Z</time>
      </trkpt>
      <trkpt lat="43.57088" lon="6.64277">
        <ele>215</ele>
        <time>2024-03-01T13:59:49Z</time>
      </trkpt>
      <trkpt lat="43.57088" lon="6.64264">
        <ele>218</ele>
        <time>2024-03-01T14:00:01Z</time>
      </trkpt>
      <trkpt lat="43.57062" lon="6.64246">
        <ele>213</ele>
        <time>2024-03-01T14:00:38Z</time>
      </trkpt>
      <trkpt lat="43.57056" lon="6.64243">
        <ele>210</ele>
        <time>2024-03-01T14:00:44Z</time>
      </trkpt>
      <trkpt lat="43.5702" lon="6.64248">
        <ele>206</ele>
        <time>2024-03-01T14:01:20Z</time>
      </trkpt>
      <trkpt lat="43.57001" lon="6.64254">
        <ele>211</ele>
        <time>2024-03-01T14:01:37Z</time>
      </trkpt>
      <trkpt lat="43.5699" lon="6.64249">
        <ele>210</ele>
        <time>2024-03-01T14:01:49Z</time>
      </trkpt>
      <trkpt lat="43.56985" lon="6.64242">
        <ele>210</ele>
        <time>2024-03-01T14:01:56Z</time>
      </trkpt>
      <trkpt lat="43.56981" lon="6.64219">
        <ele>210</ele>
        <time>2024-03-01T14:02:12Z</time>
      </trkpt>
      <trkpt lat="43.56986" lon="6.64187">
        <ele>214</ele>
        <time>2024-03-01T14:02:38Z</time>
      </trkpt>
      <trkpt lat="43.56989" lon="6.64177">
        <ele>215</ele>
        <time>2024-03-01T14:02:58Z</time>
      </trkpt>
      <trkpt lat="43.56996" lon="6.6416">
        <ele>214</ele>
        <time>2024-03-01T14:03:10Z</time>
      </trkpt>
      <trkpt lat="43.57007" lon="6.64136">
        <ele>214</ele>
        <time>2024-03-01T14:03:29Z</time>
      </trkpt>
      <trkpt lat="43.57011" lon="6.64126">
        <ele>214</ele>
        <time>2024-03-01T14:03:38Z</time>
      </trkpt>
      <trkpt lat="43.57012" lon="6.64117">
        <ele>214</ele>
        <time>2024-03-01T14:03:44Z</time>
      </trkpt>
      <trkpt lat="43.57013" lon="6.64109">
        <ele>213</ele>
        <time>2024-03-01T14:03:49Z</time>
      </trkpt>
      <trkpt lat="43.57016" lon="6.64101">
        <ele>211</ele>
        <time>2024-03-01T14:03:54Z</time>
      </trkpt>
      <trkpt lat="43.5702" lon="6.64093">
        <ele>210</ele>
        <time>2024-03-01T14:04:00Z</time>
      </trkpt>
      <trkpt lat="43.57025" lon="6.64086">
        <ele>208</ele>
        <time>2024-03-01T14:04:09Z</time>
      </trkpt>
      <trkpt lat="43.57031" lon="6.6408">
        <ele>207</ele>
        <time>2024-03-01T14:04:17Z</time>
      </trkpt>
      <trkpt lat="43.57038" lon="6.64076">
        <ele>206</ele>
        <time>2024-03-01T14:04:23Z</time>
      </trkpt>
      <trkpt lat="43.57044" lon="6.64072">
        <ele>206</ele>
        <time>2024-03-01T14:04:28Z</time>
      </trkpt>
      <trkpt lat="43.57048" lon="6.64066">
        <ele>206</ele>
        <time>2024-03-01T14:04:35Z</time>
      </trkpt>
      <trkpt lat="43.57054" lon="6.64066">
        <ele>206</ele>
        <time>2024-03-01T14:04:39Z</time>
      </trkpt>
      <trkpt lat="43.5706" lon="6.64069">
        <ele>205</ele>
        <time>2024-03-01T14:04:43Z</time>
      </trkpt>
      <trkpt lat="43.57063" lon="6.64077">
        <ele>206</ele>
        <time>2024-03-01T14:04:48Z</time>
      </trkpt>
      <trkpt lat="43.57069" lon="6.64078">
        <ele>205</ele>
        <time>2024-03-01T14:04:52Z</time>
      </trkpt>
      <trkpt lat="43.57075" lon="6.64078">
        <ele>205</ele>
        <time>2024-03-01T14:04:58Z</time>
      </trkpt>
      <trkpt lat="43.57082" lon="6.64073">
        <ele>206</ele>
        <time>2024-03-01T14:05:09Z</time>
      </trkpt>
      <trkpt lat="43.57088" lon="6.64066">
        <ele>206</ele>
        <time>2024-03-01T14:05:15Z</time>
      </trkpt>
      <trkpt lat="43.5709" lon="6.64046">
        <ele>206</ele>
        <time>2024-03-01T14:05:30Z</time>
      </trkpt>
      <trkpt lat="43.57096" lon="6.64028">
        <ele>202</ele>
        <time>2024-03-01T14:05:46Z</time>
      </trkpt>
      <trkpt lat="43.57105" lon="6.64014">
        <ele>200</ele>
        <time>2024-03-01T14:05:56Z</time>
      </trkpt>
      <trkpt lat="43.57117" lon="6.64002">
        <ele>200</ele>
        <time>2024-03-01T14:06:11Z</time>
      </trkpt>
      <trkpt lat="43.57129" lon="6.63999">
        <ele>200</ele>
        <time>2024-03-01T14:06:26Z</time>
      </trkpt>
      <trkpt lat="43.57135" lon="6.64002">
        <ele>200</ele>
        <time>2024-03-01T14:06:31Z</time>
      </trkpt>
      <trkpt lat="43.57151" lon="6.64014">
        <ele>197</ele>
        <time>2024-03-01T14:06:56Z</time>
      </trkpt>
      <trkpt lat="43.57164" lon="6.64028">
        <ele>195</ele>
        <time>2024-03-01T14:07:12Z</time>
      </trkpt>
      <trkpt lat="43.57177" lon="6.64034">
        <ele>194</ele>
        <time>2024-03-01T14:07:23Z</time>
      </trkpt>
      <trkpt lat="43.57184" lon="6.64039">
        <ele>193</ele>
        <time>2024-03-01T14:07:30Z</time>
      </trkpt>
      <trkpt lat="43.5719" lon="6.64046">
        <ele>193</ele>
        <time>2024-03-01T14:07:38Z</time>
      </trkpt>
      <trkpt lat="43.57197" lon="6.6405">
        <ele>193</ele>
        <time>2024-03-01T14:07:44Z</time>
      </trkpt>
      <trkpt lat="43.57205" lon="6.64056">
        <ele>193</ele>
        <time>2024-03-01T14:07:54Z</time>
      </trkpt>
      <trkpt lat="43.57213" lon="6.64049">
        <ele>193</ele>
        <time>2024-03-01T14:08:08Z</time>
      </trkpt>
      <trkpt lat="43.57212" lon="6.64023">
        <ele>197</ele>
        <time>2024-03-01T14:09:27Z</time>
      </trkpt>
      <trkpt lat="43.57211" lon="6.64013">
        <ele>197</ele>
        <time>2024-03-01T14:09:38Z</time>
      </trkpt>
      <trkpt lat="43.57209" lon="6.64003">
        <ele>199</ele>
        <time>2024-03-01T14:09:47Z</time>
      </trkpt>
      <trkpt lat="43.57205" lon="6.63994">
        <ele>200</ele>
        <time>2024-03-01T14:09:54Z</time>
      </trkpt>
      <trkpt lat="43.57202" lon="6.63985">
        <ele>200</ele>
        <time>2024-03-01T14:10:01Z</time>
      </trkpt>
      <trkpt lat="43.57202" lon="6.63977">
        <ele>200</ele>
        <time>2024-03-01T14:10:07Z</time>
      </trkpt>
      <trkpt lat="43.57202" lon="6.6397">
        <ele>201</ele>
        <time>2024-03-01T14:10:13Z</time>
      </trkpt>
      <trkpt lat="43.57206" lon="6.63951">
        <ele>202</ele>
        <time>2024-03-01T14:10:30Z</time>
      </trkpt>
      <trkpt lat="43.57215" lon="6.63936">
        <ele>202</ele>
        <time>2024-03-01T14:10:46Z</time>
      </trkpt>
      <trkpt lat="43.57226" lon="6.63927">
        <ele>202</ele>
        <time>2024-03-01T14:11:02Z</time>
      </trkpt>
      <trkpt lat="43.57255" lon="6.63919">
        <ele>203</ele>
        <time>2024-03-01T14:11:33Z</time>
      </trkpt>
      <trkpt lat="43.57286" lon="6.63898">
        <ele>205</ele>
        <time>2024-03-01T14:12:07Z</time>
      </trkpt>
      <trkpt lat="43.57295" lon="6.63891">
        <ele>203</ele>
        <time>2024-03-01T14:12:24Z</time>
      </trkpt>
      <trkpt lat="43.57307" lon="6.63878">
        <ele>200</ele>
        <time>2024-03-01T14:12:39Z</time>
      </trkpt>
      <trkpt lat="43.5732" lon="6.63871">
        <ele>200</ele>
        <time>2024-03-01T14:12:52Z</time>
      </trkpt>
      <trkpt lat="43.57349" lon="6.63866">
        <ele>197</ele>
        <time>2024-03-01T14:13:23Z</time>
      </trkpt>
      <trkpt lat="43.5738" lon="6.63864">
        <ele>194</ele>
        <time>2024-03-01T14:13:51Z</time>
      </trkpt>
      <trkpt lat="43.57388" lon="6.63862">
        <ele>193</ele>
        <time>2024-03-01T14:14:00Z</time>
      </trkpt>
      <trkpt lat="43.57392" lon="6.63858">
        <ele>192</ele>
        <time>2024-03-01T14:14:27Z</time>
      </trkpt>
      <trkpt lat="43.57396" lon="6.63856">
        <ele>192</ele>
        <time>2024-03-01T14:16:29Z</time>
      </trkpt>
      <trkpt lat="43.57394" lon="6.6385">
        <ele>193</ele>
        <time>2024-03-01T14:17:04Z</time>
      </trkpt>
      <trkpt lat="43.5739" lon="6.63847">
        <ele>193</ele>
        <time>2024-03-01T14:17:23Z</time>
      </trkpt>
      <trkpt lat="43.57386" lon="6.6384">
        <ele>195</ele>
        <time>2024-03-01T14:17:35Z</time>
      </trkpt>
      <trkpt lat="43.5738" lon="6.63831">
        <ele>196</ele>
        <time>2024-03-01T14:17:48Z</time>
      </trkpt>
      <trkpt lat="43.57349" lon="6.63818">
        <ele>195</ele>
        <time>2024-03-01T14:18:22Z</time>
      </trkpt>
      <trkpt lat="43.57325" lon="6.63801">
        <ele>195</ele>
        <time>2024-03-01T14:18:47Z</time>
      </trkpt>
      <trkpt lat="43.5731" lon="6.63794">
        <ele>197</ele>
        <time>2024-03-01T14:19:02Z</time>
      </trkpt>
      <trkpt lat="43.57303" lon="6.63787">
        <ele>198</ele>
        <time>2024-03-01T14:19:09Z</time>
      </trkpt>
      <trkpt lat="43.57298" lon="6.63777">
        <ele>201</ele>
        <time>2024-03-01T14:19:18Z</time>
      </trkpt>
      <trkpt lat="43.57296" lon="6.63766">
        <ele>202</ele>
        <time>2024-03-01T14:19:27Z</time>
      </trkpt>
      <trkpt lat="43.57299" lon="6.63733">
        <ele>207</ele>
        <time>2024-03-01T14:19:52Z</time>
      </trkpt>
      <trkpt lat="43.57297" lon="6.63724">
        <ele>207</ele>
        <time>2024-03-01T14:19:59Z</time>
      </trkpt>
      <trkpt lat="43.57293" lon="6.63718">
        <ele>207</ele>
        <time>2024-03-01T14:20:05Z</time>
      </trkpt>
      <trkpt lat="43.57287" lon="6.63718">
        <ele>207</ele>
        <time>2024-03-01T14:20:16Z</time>
      </trkpt>
      <trkpt lat="43.57279" lon="6.63734">
        <ele>206</ele>
        <time>2024-03-01T14:20:30Z</time>
      </trkpt>
      <trkpt lat="43.57275" lon="6.63741">
        <ele>206</ele>
        <time>2024-03-01T14:20:35Z</time>
      </trkpt>
      <trkpt lat="43.57273" lon="6.63746">
        <ele>206</ele>
        <time>2024-03-01T14:20:39Z</time>
      </trkpt>
      <trkpt lat="43.57269" lon="6.63754">
        <ele>207</ele>
        <time>2024-03-01T14:20:44Z</time>
      </trkpt>
      <trkpt lat="43.57265" lon="6.63761">
        <ele>207</ele>
        <time>2024-03-01T14:20:51Z</time>
      </trkpt>
      <trkpt lat="43.5726" lon="6.63768">
        <ele>207</ele>
        <time>2024-03-01T14:20:59Z</time>
      </trkpt>
      <trkpt lat="43.57254" lon="6.63773">
        <ele>207</ele>
        <time>2024-03-01T14:21:05Z</time>
      </trkpt>
      <trkpt lat="43.57247" lon="6.63774">
        <ele>206</ele>
        <time>2024-03-01T14:21:13Z</time>
      </trkpt>
      <trkpt lat="43.57239" lon="6.63773">
        <ele>205</ele>
        <time>2024-03-01T14:21:25Z</time>
      </trkpt>
      <trkpt lat="43.57202" lon="6.63778">
        <ele>201</ele>
        <time>2024-03-01T14:21:57Z</time>
      </trkpt>
      <trkpt lat="43.57174" lon="6.63788">
        <ele>199</ele>
        <time>2024-03-01T14:22:22Z</time>
      </trkpt>
      <trkpt lat="43.57147" lon="6.63794">
        <ele>200</ele>
        <time>2024-03-01T14:22:51Z</time>
      </trkpt>
      <trkpt lat="43.57139" lon="6.63793">
        <ele>200</ele>
        <time>2024-03-01T14:22:57Z</time>
      </trkpt>
      <trkpt lat="43.57132" lon="6.63789">
        <ele>200</ele>
        <time>2024-03-01T14:23:06Z</time>
      </trkpt>
      <trkpt lat="43.57125" lon="6.63784">
        <ele>199</ele>
        <time>2024-03-01T14:23:13Z</time>
      </trkpt>
      <trkpt lat="43.57122" lon="6.63774">
        <ele>199</ele>
        <time>2024-03-01T14:23:21Z</time>
      </trkpt>
      <trkpt lat="43.57121" lon="6.63765">
        <ele>198</ele>
        <time>2024-03-01T14:23:28Z</time>
      </trkpt>
      <trkpt lat="43.57125" lon="6.63742">
        <ele>197</ele>
        <time>2024-03-01T14:23:46Z</time>
      </trkpt>
      <trkpt lat="43.57133" lon="6.63724">
        <ele>196</ele>
        <time>2024-03-01T14:24:01Z</time>
      </trkpt>
      <trkpt lat="43.57157" lon="6.63704">
        <ele>192</ele>
        <time>2024-03-01T14:24:33Z</time>
      </trkpt>
      <trkpt lat="43.57161" lon="6.63694">
        <ele>192</ele>
        <time>2024-03-01T14:24:41Z</time>
      </trkpt>
      <trkpt lat="43.57156" lon="6.63683">
        <ele>194</ele>
        <time>2024-03-01T14:24:51Z</time>
      </trkpt>
      <trkpt lat="43.57149" lon="6.63682">
        <ele>194</ele>
        <time>2024-03-01T14:24:58Z</time>
      </trkpt>
      <trkpt lat="43.57119" lon="6.63678">
        <ele>190</ele>
        <time>2024-03-01T14:25:29Z</time>
      </trkpt>
      <trkpt lat="43.5711" lon="6.63678">
        <ele>190</ele>
        <time>2024-03-01T14:25:40Z</time>
      </trkpt>
      <trkpt lat="43.57099" lon="6.63677">
        <ele>191</ele>
        <time>2024-03-01T14:25:52Z</time>
      </trkpt>
      <trkpt lat="43.57068" lon="6.63688">
        <ele>195</ele>
        <time>2024-03-01T14:26:29Z</time>
      </trkpt>
      <trkpt lat="43.57045" lon="6.63705">
        <ele>196</ele>
        <time>2024-03-01T14:26:54Z</time>
      </trkpt>
      <trkpt lat="43.57013" lon="6.63731">
        <ele>199</ele>
        <time>2024-03-01T14:27:24Z</time>
      </trkpt>
      <trkpt lat="43.56973" lon="6.63764">
        <ele>201</ele>
        <time>2024-03-01T14:28:00Z</time>
      </trkpt>
      <trkpt lat="43.56953" lon="6.63788">
        <ele>202</ele>
        <time>2024-03-01T14:28:21Z</time>
      </trkpt>
      <trkpt lat="43.56938" lon="6.63799">
        <ele>203</ele>
        <time>2024-03-01T14:28:34Z</time>
      </trkpt>
      <trkpt lat="43.56929" lon="6.63806">
        <ele>205</ele>
        <time>2024-03-01T14:28:43Z</time>
      </trkpt>
      <trkpt lat="43.56912" lon="6.63816">
        <ele>206</ele>
        <time>2024-03-01T14:29:00Z</time>
      </trkpt>
      <trkpt lat="43.5689" lon="6.63819">
        <ele>209</ele>
        <time>2024-03-01T14:29:17Z</time>
      </trkpt>
      <trkpt lat="43.56883" lon="6.6382">
        <ele>211</ele>
        <time>2024-03-01T14:29:22Z</time>
      </trkpt>
      <trkpt lat="43.56875" lon="6.6382">
        <ele>212</ele>
        <time>2024-03-01T14:29:28Z</time>
      </trkpt>
      <trkpt lat="43.56867" lon="6.63814">
        <ele>213</ele>
        <time>2024-03-01T14:29:35Z</time>
      </trkpt>
      <trkpt lat="43.56864" lon="6.63804">
        <ele>213</ele>
        <time>2024-03-01T14:29:42Z</time>
      </trkpt>
      <trkpt lat="43.56859" lon="6.63779">
        <ele>215</ele>
        <time>2024-03-01T14:29:58Z</time>
      </trkpt>
      <trkpt lat="43.56854" lon="6.6376">
        <ele>215</ele>
        <time>2024-03-01T14:30:09Z</time>
      </trkpt>
      <trkpt lat="43.56853" lon="6.63712">
        <ele>209</ele>
        <time>2024-03-01T14:30:35Z</time>
      </trkpt>
      <trkpt lat="43.56852" lon="6.63687">
        <ele>205</ele>
        <time>2024-03-01T14:30:50Z</time>
      </trkpt>
      <trkpt lat="43.56849" lon="6.63675">
        <ele>203</ele>
        <time>2024-03-01T14:30:58Z</time>
      </trkpt>
      <trkpt lat="43.56844" lon="6.63663">
        <ele>203</ele>
        <time>2024-03-01T14:31:07Z</time>
      </trkpt>
      <trkpt lat="43.56837" lon="6.63655">
        <ele>202</ele>
        <time>2024-03-01T14:31:15Z</time>
      </trkpt>
      <trkpt lat="43.56829" lon="6.63658">
        <ele>202</ele>
        <time>2024-03-01T14:31:26Z</time>
      </trkpt>
      <trkpt lat="43.56827" lon="6.63665">
        <ele>202</ele>
        <time>2024-03-01T14:31:34Z</time>
      </trkpt>
      <trkpt lat="43.56825" lon="6.63671">
        <ele>203</ele>
        <time>2024-03-01T14:32:27Z</time>
      </trkpt>
      <trkpt lat="43.5682" lon="6.63677">
        <ele>204</ele>
        <time>2024-03-01T14:37:00Z</time>
      </trkpt>
      <trkpt lat="43.5681" lon="6.63688">
        <ele>204</ele>
        <time>2024-03-01T14:37:16Z</time>
      </trkpt>
      <trkpt lat="43.56795" lon="6.63701">
        <ele>206</ele>
        <time>2024-03-01T14:37:38Z</time>
      </trkpt>
      <trkpt lat="43.56789" lon="6.6371">
        <ele>208</ele>
        <time>2024-03-01T14:37:46Z</time>
      </trkpt>
      <trkpt lat="43.56787" lon="6.63753">
        <ele>210</ele>
        <time>2024-03-01T14:38:22Z</time>
      </trkpt>
      <trkpt lat="43.56784" lon="6.6377">
        <ele>211</ele>
        <time>2024-03-01T14:38:37Z</time>
      </trkpt>
      <trkpt lat="43.56769" lon="6.63806">
        <ele>211</ele>
        <time>2024-03-01T14:39:05Z</time>
      </trkpt>
      <trkpt lat="43.56763" lon="6.63815">
        <ele>213</ele>
        <time>2024-03-01T14:39:13Z</time>
      </trkpt>
      <trkpt lat="43.56757" lon="6.63824">
        <ele>213</ele>
        <time>2024-03-01T14:39:23Z</time>
      </trkpt>
      <trkpt lat="43.56752" lon="6.63832">
        <ele>214</ele>
        <time>2024-03-01T14:39:31Z</time>
      </trkpt>
      <trkpt lat="43.56744" lon="6.63838">
        <ele>215</ele>
        <time>2024-03-01T14:39:38Z</time>
      </trkpt>
      <trkpt lat="43.56738" lon="6.63845">
        <ele>217</ele>
        <time>2024-03-01T14:39:46Z</time>
      </trkpt>
      <trkpt lat="43.56731" lon="6.63851">
        <ele>219</ele>
        <time>2024-03-01T14:39:55Z</time>
      </trkpt>
      <trkpt lat="43.56723" lon="6.63856">
        <ele>220</ele>
        <time>2024-03-01T14:40:03Z</time>
      </trkpt>
      <trkpt lat="43.56715" lon="6.6386">
        <ele>220</ele>
        <time>2024-03-01T14:40:10Z</time>
      </trkpt>
      <trkpt lat="43.56706" lon="6.63865">
        <ele>219</ele>
        <time>2024-03-01T14:40:20Z</time>
      </trkpt>
      <trkpt lat="43.567" lon="6.6387">
        <ele>219</ele>
        <time>2024-03-01T14:40:27Z</time>
      </trkpt>
      <trkpt lat="43.56693" lon="6.63875">
        <ele>219</ele>
        <time>2024-03-01T14:40:35Z</time>
      </trkpt>
      <trkpt lat="43.56686" lon="6.63881">
        <ele>220</ele>
        <time>2024-03-01T14:40:43Z</time>
      </trkpt>
      <trkpt lat="43.5668" lon="6.63889">
        <ele>220</ele>
        <time>2024-03-01T14:40:52Z</time>
      </trkpt>
      <trkpt lat="43.56673" lon="6.63893">
        <ele>221</ele>
        <time>2024-03-01T14:41:00Z</time>
      </trkpt>
      <trkpt lat="43.56666" lon="6.63899">
        <ele>221</ele>
        <time>2024-03-01T14:41:09Z</time>
      </trkpt>
      <trkpt lat="43.5666" lon="6.63906">
        <ele>222</ele>
        <time>2024-03-01T14:41:16Z</time>
      </trkpt>
      <trkpt lat="43.56655" lon="6.63912">
        <ele>221</ele>
        <time>2024-03-01T14:41:27Z</time>
      </trkpt>
      <trkpt lat="43.56651" lon="6.63915">
        <ele>220</ele>
        <time>2024-03-01T14:41:34Z</time>
      </trkpt>
      <trkpt lat="43.56644" lon="6.63921">
        <ele>219</ele>
        <time>2024-03-01T14:41:42Z</time>
      </trkpt>
      <trkpt lat="43.56639" lon="6.63927">
        <ele>220</ele>
        <time>2024-03-01T14:41:50Z</time>
      </trkpt>
      <trkpt lat="43.56633" lon="6.63935">
        <ele>220</ele>
        <time>2024-03-01T14:42:00Z</time>
      </trkpt>
      <trkpt lat="43.56627" lon="6.63942">
        <ele>220</ele>
        <time>2024-03-01T14:42:07Z</time>
      </trkpt>
      <trkpt lat="43.56622" lon="6.63948">
        <ele>221</ele>
        <time>2024-03-01T14:42:13Z</time>
      </trkpt>
      <trkpt lat="43.56618" lon="6.63952">
        <ele>224</ele>
        <time>2024-03-01T14:42:19Z</time>
      </trkpt>
      <trkpt lat="43.56614" lon="6.63951">
        <ele>225</ele>
        <time>2024-03-01T14:42:33Z</time>
      </trkpt>
      <trkpt lat="43.56612" lon="6.63942">
        <ele>224</ele>
        <time>2024-03-01T14:46:25Z</time>
      </trkpt>
      <trkpt lat="43.56605" lon="6.63925">
        <ele>226</ele>
        <time>2024-03-01T14:46:41Z</time>
      </trkpt>
      <trkpt lat="43.56598" lon="6.63926">
        <ele>226</ele>
        <time>2024-03-01T14:46:52Z</time>
      </trkpt>
      <trkpt lat="43.5659" lon="6.63928">
        <ele>227</ele>
        <time>2024-03-01T14:46:59Z</time>
      </trkpt>
      <trkpt lat="43.56584" lon="6.63933">
        <ele>227</ele>
        <time>2024-03-01T14:47:09Z</time>
      </trkpt>
      <trkpt lat="43.56579" lon="6.63934">
        <ele>228</ele>
        <time>2024-03-01T14:47:17Z</time>
      </trkpt>
      <trkpt lat="43.56573" lon="6.63935">
        <ele>228</ele>
        <time>2024-03-01T14:47:29Z</time>
      </trkpt>
      <trkpt lat="43.56567" lon="6.63943">
        <ele>228</ele>
        <time>2024-03-01T14:47:38Z</time>
      </trkpt>
      <trkpt lat="43.56568" lon="6.63954">
        <ele>225</ele>
        <time>2024-03-01T14:47:47Z</time>
      </trkpt>
      <trkpt lat="43.56569" lon="6.63966">
        <ele>224</ele>
        <time>2024-03-01T14:47:56Z</time>
      </trkpt>
      <trkpt lat="43.56575" lon="6.63971">
        <ele>223</ele>
        <time>2024-03-01T14:48:05Z</time>
      </trkpt>
      <trkpt lat="43.56576" lon="6.63977">
        <ele>222</ele>
        <time>2024-03-01T14:48:15Z</time>
      </trkpt>
      <trkpt lat="43.56564" lon="6.63997">
        <ele>222</ele>
        <time>2024-03-01T14:48:41Z</time>
      </trkpt>
      <trkpt lat="43.56555" lon="6.64001">
        <ele>222</ele>
        <time>2024-03-01T14:48:55Z</time>
      </trkpt>
      <trkpt lat="43.56551" lon="6.64004">
        <ele>220</ele>
        <time>2024-03-01T14:49:02Z</time>
      </trkpt>
      <trkpt lat="43.56542" lon="6.64009">
        <ele>219</ele>
        <time>2024-03-01T14:49:13Z</time>
      </trkpt>
      <trkpt lat="43.56537" lon="6.64018">
        <ele>216</ele>
        <time>2024-03-01T14:49:29Z</time>
      </trkpt>
      <trkpt lat="43.56536" lon="6.64024">
        <ele>214</ele>
        <time>2024-03-01T14:49:34Z</time>
      </trkpt>
      <trkpt lat="43.56532" lon="6.64027">
        <ele>213</ele>
        <time>2024-03-01T14:50:56Z</time>
      </trkpt>
      <trkpt lat="43.56527" lon="6.64027">
        <ele>211</ele>
        <time>2024-03-01T14:51:22Z</time>
      </trkpt>
      <trkpt lat="43.56522" lon="6.64028">
        <ele>210</ele>
        <time>2024-03-01T14:51:30Z</time>
      </trkpt>
      <trkpt lat="43.56514" lon="6.64028">
        <ele>209</ele>
        <time>2024-03-01T14:51:38Z</time>
      </trkpt>
      <trkpt lat="43.56508" lon="6.64038">
        <ele>205</ele>
        <time>2024-03-01T14:52:27Z</time>
      </trkpt>
      <trkpt lat="43.56502" lon="6.64031">
        <ele>205</ele>
        <time>2024-03-01T14:52:38Z</time>
      </trkpt>
      <trkpt lat="43.56494" lon="6.64031">
        <ele>205</ele>
        <time>2024-03-01T14:52:48Z</time>
      </trkpt>
      <trkpt lat="43.56485" lon="6.64031">
        <ele>204</ele>
        <time>2024-03-01T14:52:59Z</time>
      </trkpt>
      <trkpt lat="43.56473" lon="6.64036">
        <ele>204</ele>
        <time>2024-03-01T14:53:16Z</time>
      </trkpt>
      <trkpt lat="43.56469" lon="6.6404">
        <ele>203</ele>
        <time>2024-03-01T14:53:22Z</time>
      </trkpt>
      <trkpt lat="43.5647" lon="6.64049">
        <ele>202</ele>
        <time>2024-03-01T14:53:33Z</time>
      </trkpt>
      <trkpt lat="43.56473" lon="6.64052">
        <ele>200</ele>
        <time>2024-03-01T14:53:39Z</time>
      </trkpt>
      <trkpt lat="43.56483" lon="6.64059">
        <ele>199</ele>
        <time>2024-03-01T14:54:01Z</time>
      </trkpt>
      <trkpt lat="43.56494" lon="6.64063">
        <ele>198</ele>
        <time>2024-03-01T14:54:14Z</time>
      </trkpt>
      <trkpt lat="43.56498" lon="6.64067">
        <ele>197</ele>
        <time>2024-03-01T14:54:19Z</time>
      </trkpt>
      <trkpt lat="43.56501" lon="6.64074">
        <ele>197</ele>
        <time>2024-03-01T14:54:25Z</time>
      </trkpt>
      <trkpt lat="43.56504" lon="6.64095">
        <ele>196</ele>
        <time>2024-03-01T14:54:57Z</time>
      </trkpt>
      <trkpt lat="43.56504" lon="6.64116">
        <ele>197</ele>
        <time>2024-03-01T14:55:14Z</time>
      </trkpt>
      <trkpt lat="43.56502" lon="6.64122">
        <ele>197</ele>
        <time>2024-03-01T14:55:24Z</time>
      </trkpt>
      <trkpt lat="43.56502" lon="6.64129">
        <ele>197</ele>
        <time>2024-03-01T14:55:55Z</time>
      </trkpt>
      <trkpt lat="43.565" lon="6.64149">
        <ele>197</ele>
        <time>2024-03-01T14:56:21Z</time>
      </trkpt>
      <trkpt lat="43.565" lon="6.64157">
        <ele>197</ele>
        <time>2024-03-01T14:56:33Z</time>
      </trkpt>
      <trkpt lat="43.56501" lon="6.64182">
        <ele>195</ele>
        <time>2024-03-01T14:56:58Z</time>
      </trkpt>
      <trkpt lat="43.56497" lon="6.64187">
        <ele>196</ele>
        <time>2024-03-01T14:58:30Z</time>
      </trkpt>
      <trkpt lat="43.56493" lon="6.64185">
        <ele>196</ele>
        <time>2024-03-01T14:58:39Z</time>
      </trkpt>
      <trkpt lat="43.56476" lon="6.6419">
        <ele>196</ele>
        <time>2024-03-01T14:59:14Z</time>
      </trkpt>
      <trkpt lat="43.56462" lon="6.64201">
        <ele>198</ele>
        <time>2024-03-01T14:59:51Z</time>
      </trkpt>
      <trkpt lat="43.56454" lon="6.64205">
        <ele>199</ele>
        <time>2024-03-01T15:00:02Z</time>
      </trkpt>
      <trkpt lat="43.56442" lon="6.6421">
        <ele>203</ele>
        <time>2024-03-01T15:00:19Z</time>
      </trkpt>
      <trkpt lat="43.56414" lon="6.6421">
        <ele>207</ele>
        <time>2024-03-01T15:00:58Z</time>
      </trkpt>
      <trkpt lat="43.56401" lon="6.64211">
        <ele>206</ele>
        <time>2024-03-01T15:01:24Z</time>
      </trkpt>
      <trkpt lat="43.56391" lon="6.64209">
        <ele>204</ele>
        <time>2024-03-01T15:01:47Z</time>
      </trkpt>
      <trkpt lat="43.56387" lon="6.64207">
        <ele>202</ele>
        <time>2024-03-01T15:01:54Z</time>
      </trkpt>
      <trkpt lat="43.56382" lon="6.64207">
        <ele>200</ele>
        <time>2024-03-01T15:02:00Z</time>
      </trkpt>
      <trkpt lat="43.56373" lon="6.6421">
        <ele>200</ele>
        <time>2024-03-01T15:02:15Z</time>
      </trkpt>
      <trkpt lat="43.56365" lon="6.64218">
        <ele>200</ele>
        <time>2024-03-01T15:02:27Z</time>
      </trkpt>
      <trkpt lat="43.56359" lon="6.64231">
        <ele>199</ele>
        <time>2024-03-01T15:02:41Z</time>
      </trkpt>
      <trkpt lat="43.56342" lon="6.64267">
        <ele>197</ele>
        <time>2024-03-01T15:03:15Z</time>
      </trkpt>
      <trkpt lat="43.56333" lon="6.6429">
        <ele>200</ele>
        <time>2024-03-01T15:03:42Z</time>
      </trkpt>
      <trkpt lat="43.56327" lon="6.64306">
        <ele>200</ele>
        <time>2024-03-01T15:03:51Z</time>
      </trkpt>
      <trkpt lat="43.56317" lon="6.64322">
        <ele>199</ele>
        <time>2024-03-01T15:04:08Z</time>
      </trkpt>
      <trkpt lat="43.56318" lon="6.64338">
        <ele>199</ele>
        <time>2024-03-01T15:04:26Z</time>
      </trkpt>
      <trkpt lat="43.56324" lon="6.64352">
        <ele>202</ele>
        <time>2024-03-01T15:04:48Z</time>
      </trkpt>
      <trkpt lat="43.56347" lon="6.64365">
        <ele>203</ele>
        <time>2024-03-01T15:05:19Z</time>
      </trkpt>
      <trkpt lat="43.56378" lon="6.64388">
        <ele>204</ele>
        <time>2024-03-01T15:06:02Z</time>
      </trkpt>
      <trkpt lat="43.56392" lon="6.64399">
        <ele>202</ele>
        <time>2024-03-01T15:06:21Z</time>
      </trkpt>
      <trkpt lat="43.56405" lon="6.64419">
        <ele>201</ele>
        <time>2024-03-01T15:06:45Z</time>
      </trkpt>
      <trkpt lat="43.5642" lon="6.64428">
        <ele>198</ele>
        <time>2024-03-01T15:07:06Z</time>
      </trkpt>
      <trkpt lat="43.5643" lon="6.64432">
        <ele>197</ele>
        <time>2024-03-01T15:07:20Z</time>
      </trkpt>
      <trkpt lat="43.56435" lon="6.64433">
        <ele>197</ele>
        <time>2024-03-01T15:08:01Z</time>
      </trkpt>
      <trkpt lat="43.56444" lon="6.64436">
        <ele>195</ele>
        <time>2024-03-01T15:09:17Z</time>
      </trkpt>
      <trkpt lat="43.56448" lon="6.64439">
        <ele>195</ele>
        <time>2024-03-01T15:10:14Z</time>
      </trkpt>
      <trkpt lat="43.56454" lon="6.64448">
        <ele>196</ele>
        <time>2024-03-01T15:10:53Z</time>
      </trkpt>
      <trkpt lat="43.56459" lon="6.64456">
        <ele>195</ele>
        <time>2024-03-01T15:12:11Z</time>
      </trkpt>
      <trkpt lat="43.56464" lon="6.64466">
        <ele>194</ele>
        <time>2024-03-01T15:12:25Z</time>
      </trkpt>
      <trkpt lat="43.56473" lon="6.64475">
        <ele>191</ele>
        <time>2024-03-01T15:12:42Z</time>
      </trkpt>
      <trkpt lat="43.56475" lon="6.64481">
        <ele>191</ele>
        <time>2024-03-01T15:13:13Z</time>
      </trkpt>
      <trkpt lat="43.56478" lon="6.64486">
        <ele>187</ele>
        <time>2024-03-01T15:15:55Z</time>
      </trkpt>
      <trkpt lat="43.56484" lon="6.64499">
        <ele>186</ele>
        <time>2024-03-01T15:16:05Z</time>
      </trkpt>
      <trkpt lat="43.56489" lon="6.64516">
        <ele>182</ele>
        <time>2024-03-01T15:16:23Z</time>
      </trkpt>
      <trkpt lat="43.5649" lon="6.64522">
        <ele>182</ele>
        <time>2024-03-01T15:16:45Z</time>
      </trkpt>
      <trkpt lat="43.56493" lon="6.64526">
        <ele>182</ele>
        <time>2024-03-01T15:17:12Z</time>
      </trkpt>
      <trkpt lat="43.56498" lon="6.64525">
        <ele>179</ele>
        <time>2024-03-01T15:17:48Z</time>
      </trkpt>
      <trkpt lat="43.56516" lon="6.64523">
        <ele>180</ele>
        <time>2024-03-01T15:18:23Z</time>
      </trkpt>
      <trkpt lat="43.56509" lon="6.64524">
        <ele>184</ele>
        <time>2024-03-01T15:20:04Z</time>
      </trkpt>
      <trkpt lat="43.56504" lon="6.64531">
        <ele>183</ele>
        <time>2024-03-01T15:20:39Z</time>
      </trkpt>
      <trkpt lat="43.56506" lon="6.64547">
        <ele>183</ele>
        <time>2024-03-01T15:20:57Z</time>
      </trkpt>
      <trkpt lat="43.56523" lon="6.64539">
        <ele>185</ele>
        <time>2024-03-01T15:21:26Z</time>
      </trkpt>
      <trkpt lat="43.56531" lon="6.64533">
        <ele>185</ele>
        <time>2024-03-01T15:21:55Z</time>
      </trkpt>
      <trkpt lat="43.56537" lon="6.64525">
        <ele>185</ele>
        <time>2024-03-01T15:22:15Z</time>
      </trkpt>
      <trkpt lat="43.56539" lon="6.64518">
        <ele>185</ele>
        <time>2024-03-01T15:22:21Z</time>
      </trkpt>
      <trkpt lat="43.56552" lon="6.64508">
        <ele>185</ele>
        <time>2024-03-01T15:23:20Z</time>
      </trkpt>
      <trkpt lat="43.56552" lon="6.64507">
        <ele>188</ele>
        <time>2024-03-01T15:23:53Z</time>
      </trkpt>
      <trkpt lat="43.56545" lon="6.64517">
        <ele>189</ele>
        <time>2024-03-01T15:24:04Z</time>
      </trkpt>
      <trkpt lat="43.56536" lon="6.64531">
        <ele>191</ele>
        <time>2024-03-01T15:24:18Z</time>
      </trkpt>
      <trkpt lat="43.56523" lon="6.6454">
        <ele>188</ele>
        <time>2024-03-01T15:24:58Z</time>
      </trkpt>
      <trkpt lat="43.56519" lon="6.64542">
        <ele>187</ele>
        <time>2024-03-01T15:25:10Z</time>
      </trkpt>
      <trkpt lat="43.56513" lon="6.6455">
        <ele>187</ele>
        <time>2024-03-01T15:25:41Z</time>
      </trkpt>
      <trkpt lat="43.56509" lon="6.64556">
        <ele>186</ele>
        <time>2024-03-01T15:25:47Z</time>
      </trkpt>
      <trkpt lat="43.56503" lon="6.64568">
        <ele>187</ele>
        <time>2024-03-01T15:25:57Z</time>
      </trkpt>
      <trkpt lat="43.56501" lon="6.64583">
        <ele>187</ele>
        <time>2024-03-01T15:26:11Z</time>
      </trkpt>
      <trkpt lat="43.56494" lon="6.64595">
        <ele>186</ele>
        <time>2024-03-01T15:26:28Z</time>
      </trkpt>
      <trkpt lat="43.56471" lon="6.64629">
        <ele>186</ele>
        <time>2024-03-01T15:27:18Z</time>
      </trkpt>
      <trkpt lat="43.56461" lon="6.6465">
        <ele>183</ele>
        <time>2024-03-01T15:27:57Z</time>
      </trkpt>
      <trkpt lat="43.56448" lon="6.64669">
        <ele>182</ele>
        <time>2024-03-01T15:28:27Z</time>
      </trkpt>
      <trkpt lat="43.56436" lon="6.64687">
        <ele>184</ele>
        <time>2024-03-01T15:29:05Z</time>
      </trkpt>
      <trkpt lat="43.56427" lon="6.64696">
        <ele>183</ele>
        <time>2024-03-01T15:29:24Z</time>
      </trkpt>
      <trkpt lat="43.56416" lon="6.6471">
        <ele>184</ele>
        <time>2024-03-01T15:30:02Z</time>
      </trkpt>
      <trkpt lat="43.56403" lon="6.64727">
        <ele>184</ele>
        <time>2024-03-01T15:30:34Z</time>
      </trkpt>
      <trkpt lat="43.56394" lon="6.64746">
        <ele>182</ele>
        <time>2024-03-01T15:30:49Z</time>
      </trkpt>
      <trkpt lat="43.56384" lon="6.64761">
        <ele>183</ele>
        <time>2024-03-01T15:31:01Z</time>
      </trkpt>
      <trkpt lat="43.56378" lon="6.64771">
        <ele>185</ele>
        <time>2024-03-01T15:31:10Z</time>
      </trkpt>
      <trkpt lat="43.56371" lon="6.6478">
        <ele>188</ele>
        <time>2024-03-01T15:31:25Z</time>
      </trkpt>
      <trkpt lat="43.56365" lon="6.64799">
        <ele>189</ele>
        <time>2024-03-01T15:31:51Z</time>
      </trkpt>
      <trkpt lat="43.56354" lon="6.64819">
        <ele>191</ele>
        <time>2024-03-01T15:32:37Z</time>
      </trkpt>
      <trkpt lat="43.56344" lon="6.64834">
        <ele>189</ele>
        <time>2024-03-01T15:32:48Z</time>
      </trkpt>
      <trkpt lat="43.56334" lon="6.64842">
        <ele>189</ele>
        <time>2024-03-01T15:32:58Z</time>
      </trkpt>
      <trkpt lat="43.5633" lon="6.64848">
        <ele>189</ele>
        <time>2024-03-01T15:33:08Z</time>
      </trkpt>
      <trkpt lat="43.56315" lon="6.64874">
        <ele>190</ele>
        <time>2024-03-01T15:33:43Z</time>
      </trkpt>
      <trkpt lat="43.56306" lon="6.64886">
        <ele>189</ele>
        <time>2024-03-01T15:34:06Z</time>
      </trkpt>
      <trkpt lat="43.5629" lon="6.64914">
        <ele>189</ele>
        <time>2024-03-01T15:34:44Z</time>
      </trkpt>
      <trkpt lat="43.56273" lon="6.64941">
        <ele>188</ele>
        <time>2024-03-01T15:35:16Z</time>
      </trkpt>
      <trkpt lat="43.56257" lon="6.64968">
        <ele>189</ele>
        <time>2024-03-01T15:35:40Z</time>
      </trkpt>
      <trkpt lat="43.56249" lon="6.64976">
        <ele>193</ele>
        <time>2024-03-01T15:35:51Z</time>
      </trkpt>
      <trkpt lat="43.56239" lon="6.64986">
        <ele>193</ele>
        <time>2024-03-01T15:36:01Z</time>
      </trkpt>
      <trkpt lat="43.56232" lon="6.65002">
        <ele>193</ele>
        <time>2024-03-01T15:36:21Z</time>
      </trkpt>
      <trkpt lat="43.56226" lon="6.65012">
        <ele>194</ele>
        <time>2024-03-01T15:36:29Z</time>
      </trkpt>
      <trkpt lat="43.56218" lon="6.65028">
        <ele>192</ele>
        <time>2024-03-01T15:36:43Z</time>
      </trkpt>
      <trkpt lat="43.56212" lon="6.65035">
        <ele>192</ele>
        <time>2024-03-01T15:36:49Z</time>
      </trkpt>
      <trkpt lat="43.56206" lon="6.65045">
        <ele>191</ele>
        <time>2024-03-01T15:37:00Z</time>
      </trkpt>
      <trkpt lat="43.56196" lon="6.65067">
        <ele>189</ele>
        <time>2024-03-01T15:37:18Z</time>
      </trkpt>
      <trkpt lat="43.56195" lon="6.65074">
        <ele>190</ele>
        <time>2024-03-01T15:37:22Z</time>
      </trkpt>
      <trkpt lat="43.56183" lon="6.65094">
        <ele>191</ele>
        <time>2024-03-01T15:37:49Z</time>
      </trkpt>
      <trkpt lat="43.5618" lon="6.65099">
        <ele>192</ele>
        <time>2024-03-01T15:37:56Z</time>
      </trkpt>
      <trkpt lat="43.56174" lon="6.6511">
        <ele>192</ele>
        <time>2024-03-01T15:38:03Z</time>
      </trkpt>
      <trkpt lat="43.56172" lon="6.65118">
        <ele>192</ele>
        <time>2024-03-01T15:38:09Z</time>
      </trkpt>
      <trkpt lat="43.56173" lon="6.65146">
        <ele>190</ele>
        <time>2024-03-01T15:38:27Z</time>
      </trkpt>
      <trkpt lat="43.56172" lon="6.65156">
        <ele>188</ele>
        <time>2024-03-01T15:38:45Z</time>
      </trkpt>
      <trkpt lat="43.56177" lon="6.65183">
        <ele>187</ele>
        <time>2024-03-01T15:39:05Z</time>
      </trkpt>
      <trkpt lat="43.5618" lon="6.65194">
        <ele>186</ele>
        <time>2024-03-01T15:39:13Z</time>
      </trkpt>
      <trkpt lat="43.56183" lon="6.65201">
        <ele>183</ele>
        <time>2024-03-01T15:39:19Z</time>
      </trkpt>
      <trkpt lat="43.56185" lon="6.65211">
        <ele>183</ele>
        <time>2024-03-01T15:39:24Z</time>
      </trkpt>
      <trkpt lat="43.56189" lon="6.65217">
        <ele>182</ele>
        <time>2024-03-01T15:39:31Z</time>
      </trkpt>
      <trkpt lat="43.562" lon="6.65247">
        <ele>184</ele>
        <time>2024-03-01T15:39:58Z</time>
      </trkpt>
      <trkpt lat="43.56212" lon="6.65269">
        <ele>183</ele>
        <time>2024-03-01T15:40:26Z</time>
      </trkpt>
      <trkpt lat="43.56214" lon="6.65281">
        <ele>185</ele>
        <time>2024-03-01T15:41:08Z</time>
      </trkpt>
      <trkpt lat="43.56218" lon="6.65294">
        <ele>184</ele>
        <time>2024-03-01T15:41:24Z</time>
      </trkpt>
      <trkpt lat="43.56227" lon="6.6531">
        <ele>185</ele>
        <time>2024-03-01T15:41:42Z</time>
      </trkpt>
      <trkpt lat="43.56231" lon="6.65316">
        <ele>185</ele>
        <time>2024-03-01T15:41:49Z</time>
      </trkpt>
      <trkpt lat="43.56232" lon="6.65325">
        <ele>186</ele>
        <time>2024-03-01T15:42:01Z</time>
      </trkpt>
      <trkpt lat="43.5624" lon="6.65343">
        <ele>185</ele>
        <time>2024-03-01T15:42:43Z</time>
      </trkpt>
      <trkpt lat="43.56243" lon="6.65348">
        <ele>184</ele>
        <time>2024-03-01T15:42:49Z</time>
      </trkpt>
      <trkpt lat="43.56245" lon="6.65354">
        <ele>185</ele>
        <time>2024-03-01T15:43:21Z</time>
      </trkpt>
      <trkpt lat="43.56247" lon="6.65359">
        <ele>187</ele>
        <time>2024-03-01T15:43:38Z</time>
      </trkpt>
      <trkpt lat="43.56249" lon="6.65366">
        <ele>189</ele>
        <time>2024-03-01T15:43:52Z</time>
      </trkpt>
      <trkpt lat="43.56255" lon="6.65381">
        <ele>188</ele>
        <time>2024-03-01T15:44:16Z</time>
      </trkpt>
      <trkpt lat="43.56259" lon="6.65395">
        <ele>187</ele>
        <time>2024-03-01T15:44:36Z</time>
      </trkpt>
      <trkpt lat="43.56263" lon="6.65413">
        <ele>189</ele>
        <time>2024-03-01T15:45:12Z</time>
      </trkpt>
      <trkpt lat="43.5627" lon="6.65432">
        <ele>190</ele>
        <time>2024-03-01T15:45:58Z</time>
      </trkpt>
      <trkpt lat="43.56287" lon="6.65454">
        <ele>189</ele>
        <time>2024-03-01T15:46:30Z</time>
      </trkpt>
      <trkpt lat="43.56305" lon="6.65474">
        <ele>188</ele>
        <time>2024-03-01T15:47:15Z</time>
      </trkpt>
      <trkpt lat="43.5631" lon="6.65473">
        <ele>189</ele>
        <time>2024-03-01T15:48:58Z</time>
      </trkpt>
      <trkpt lat="43.56316" lon="6.65471">
        <ele>189</ele>
        <time>2024-03-01T15:49:04Z</time>
      </trkpt>
      <trkpt lat="43.56322" lon="6.65465">
        <ele>190</ele>
        <time>2024-03-01T15:49:19Z</time>
      </trkpt>
      <trkpt lat="43.56329" lon="6.65465">
        <ele>191</ele>
        <time>2024-03-01T15:49:36Z</time>
      </trkpt>
      <trkpt lat="43.56356" lon="6.65478">
        <ele>192</ele>
        <time>2024-03-01T15:50:11Z</time>
      </trkpt>
      <trkpt lat="43.56375" lon="6.6549">
        <ele>191</ele>
        <time>2024-03-01T15:50:29Z</time>
      </trkpt>
      <trkpt lat="43.56384" lon="6.65499">
        <ele>191</ele>
        <time>2024-03-01T15:50:40Z</time>
      </trkpt>
      <trkpt lat="43.56392" lon="6.65511">
        <ele>195</ele>
        <time>2024-03-01T15:50:55Z</time>
      </trkpt>
      <trkpt lat="43.56402" lon="6.65523">
        <ele>194</ele>
        <time>2024-03-01T15:51:11Z</time>
      </trkpt>
      <trkpt lat="43.5641" lon="6.65533">
        <ele>194</ele>
        <time>2024-03-01T15:51:17Z</time>
      </trkpt>
      <trkpt lat="43.56417" lon="6.65545">
        <ele>195</ele>
        <time>2024-03-01T15:51:25Z</time>
      </trkpt>
      <trkpt lat="43.56426" lon="6.65559">
        <ele>196</ele>
        <time>2024-03-01T15:51:39Z</time>
      </trkpt>
      <trkpt lat="43.56433" lon="6.65568">
        <ele>194</ele>
        <time>2024-03-01T15:51:49Z</time>
      </trkpt>
      <trkpt lat="43.56442" lon="6.65573">
        <ele>194</ele>
        <time>2024-03-01T15:51:57Z</time>
      </trkpt>
      <trkpt lat="43.56453" lon="6.65584">
        <ele>194</ele>
        <time>2024-03-01T15:52:22Z</time>
      </trkpt>
      <trkpt lat="43.56479" lon="6.656">
        <ele>194</ele>
        <time>2024-03-01T15:52:55Z</time>
      </trkpt>
      <trkpt lat="43.56484" lon="6.65612">
        <ele>195</ele>
        <time>2024-03-01T15:53:03Z</time>
      </trkpt>
      <trkpt lat="43.56504" lon="6.65631">
        <ele>195</ele>
        <time>2024-03-01T15:53:34Z</time>
      </trkpt>
      <trkpt lat="43.56507" lon="6.65636">
        <ele>195</ele>
        <time>2024-03-01T15:53:49Z</time>
      </trkpt>
      <trkpt lat="43.56518" lon="6.65653">
        <ele>192</ele>
        <time>2024-03-01T15:54:06Z</time>
      </trkpt>
      <trkpt lat="43.56545" lon="6.65675">
        <ele>194</ele>
        <time>2024-03-01T15:54:45Z</time>
      </trkpt>
      <trkpt lat="43.56566" lon="6.65687">
        <ele>195</ele>
        <time>2024-03-01T15:55:10Z</time>
      </trkpt>
      <trkpt lat="43.56571" lon="6.65689">
        <ele>198</ele>
        <time>2024-03-01T15:55:18Z</time>
      </trkpt>
      <trkpt lat="43.56581" lon="6.657">
        <ele>200</ele>
        <time>2024-03-01T15:55:34Z</time>
      </trkpt>
      <trkpt lat="43.56582" lon="6.65707">
        <ele>200</ele>
        <time>2024-03-01T15:55:47Z</time>
      </trkpt>
      <trkpt lat="43.56585" lon="6.65712">
        <ele>200</ele>
        <time>2024-03-01T15:55:54Z</time>
      </trkpt>
      <trkpt lat="43.56597" lon="6.65713">
        <ele>200</ele>
        <time>2024-03-01T15:56:11Z</time>
      </trkpt>
      <trkpt lat="43.56603" lon="6.65718">
        <ele>201</ele>
        <time>2024-03-01T15:56:19Z</time>
      </trkpt>
      <trkpt lat="43.56609" lon="6.65734">
        <ele>201</ele>
        <time>2024-03-01T15:56:35Z</time>
      </trkpt>
      <trkpt lat="43.56608" lon="6.65743">
        <ele>201</ele>
        <time>2024-03-01T15:57:18Z</time>
      </trkpt>
      <trkpt lat="43.5661" lon="6.65746">
        <ele>201</ele>
        <time>2024-03-01T15:59:46Z</time>
      </trkpt>
      <trkpt lat="43.56613" lon="6.65751">
        <ele>201</ele>
        <time>2024-03-01T15:59:58Z</time>
      </trkpt>
      <trkpt lat="43.56629" lon="6.65767">
        <ele>201</ele>
        <time>2024-03-01T16:00:23Z</time>
      </trkpt>
      <trkpt lat="43.56633" lon="6.65771">
        <ele>201</ele>
        <time>2024-03-01T16:00:28Z</time>
      </trkpt>
      <trkpt lat="43.5664" lon="6.6578">
        <ele>201</ele>
        <time>2024-03-01T16:00:38Z</time>
      </trkpt>
      <trkpt lat="43.56643" lon="6.65785">
        <ele>200</ele>
        <time>2024-03-01T16:00:43Z</time>
      </trkpt>
      <trkpt lat="43.56648" lon="6.65789">
        <ele>201</ele>
        <time>2024-03-01T16:00:48Z</time>
      </trkpt>
      <trkpt lat="43.56652" lon="6.65792">
        <ele>201</ele>
        <time>2024-03-01T16:00:53Z</time>
      </trkpt>
      <trkpt lat="43.56655" lon="6.65797">
        <ele>201</ele>
        <time>2024-03-01T16:00:59Z</time>
      </trkpt>
      <trkpt lat="43.56657" lon="6.65804">
        <ele>202</ele>
        <time>2024-03-01T16:01:04Z</time>
      </trkpt>
      <trkpt lat="43.56662" lon="6.65806">
        <ele>202</ele>
        <time>2024-03-01T16:01:10Z</time>
      </trkpt>
      <trkpt lat="43.56672" lon="6.65814">
        <ele>201</ele>
        <time>2024-03-01T16:01:19Z</time>
      </trkpt>
      <trkpt lat="43.56678" lon="6.65816">
        <ele>201</ele>
        <time>2024-03-01T16:01:24Z</time>
      </trkpt>
      <trkpt lat="43.56683" lon="6.65821">
        <ele>201</ele>
        <time>2024-03-01T16:01:31Z</time>
      </trkpt>
      <trkpt lat="43.56692" lon="6.65829">
        <ele>201</ele>
        <time>2024-03-01T16:01:42Z</time>
      </trkpt>
      <trkpt lat="43.56701" lon="6.65836">
        <ele>201</ele>
        <time>2024-03-01T16:01:51Z</time>
      </trkpt>
      <trkpt lat="43.56705" lon="6.6584">
        <ele>201</ele>
        <time>2024-03-01T16:01:56Z</time>
      </trkpt>
      <trkpt lat="43.5672" lon="6.65862">
        <ele>201</ele>
        <time>2024-03-01T16:02:18Z</time>
      </trkpt>
      <trkpt lat="43.56724" lon="6.65867">
        <ele>201</ele>
        <time>2024-03-01T16:02:22Z</time>
      </trkpt>
      <trkpt lat="43.56748" lon="6.65897">
        <ele>208</ele>
        <time>2024-03-01T16:02:53Z</time>
      </trkpt>
      <trkpt lat="43.56755" lon="6.65908">
        <ele>211</ele>
        <time>2024-03-01T16:03:06Z</time>
      </trkpt>
      <trkpt lat="43.56765" lon="6.65942">
        <ele>216</ele>
        <time>2024-03-01T16:03:33Z</time>
      </trkpt>
      <trkpt lat="43.56766" lon="6.65951">
        <ele>216</ele>
        <time>2024-03-01T16:03:42Z</time>
      </trkpt>
      <trkpt lat="43.56775" lon="6.6598">
        <ele>217</ele>
        <time>2024-03-01T16:04:10Z</time>
      </trkpt>
      <trkpt lat="43.56782" lon="6.65988">
        <ele>215</ele>
        <time>2024-03-01T16:04:19Z</time>
      </trkpt>
      <trkpt lat="43.5679" lon="6.65993">
        <ele>212</ele>
        <time>2024-03-01T16:04:31Z</time>
      </trkpt>
      <trkpt lat="43.56803" lon="6.66">
        <ele>212</ele>
        <time>2024-03-01T16:04:45Z</time>
      </trkpt>
      <trkpt lat="43.56807" lon="6.66004">
        <ele>213</ele>
        <time>2024-03-01T16:04:51Z</time>
      </trkpt>
      <trkpt lat="43.56817" lon="6.66026">
        <ele>216</ele>
        <time>2024-03-01T16:05:13Z</time>
      </trkpt>
      <trkpt lat="43.56825" lon="6.66031">
        <ele>217</ele>
        <time>2024-03-01T16:05:23Z</time>
      </trkpt>
      <trkpt lat="43.56839" lon="6.66035">
        <ele>218</ele>
        <time>2024-03-01T16:05:38Z</time>
      </trkpt>
      <trkpt lat="43.56855" lon="6.66034">
        <ele>220</ele>
        <time>2024-03-01T16:05:56Z</time>
      </trkpt>
      <trkpt lat="43.5686" lon="6.66031">
        <ele>219</ele>
        <time>2024-03-01T16:06:02Z</time>
      </trkpt>
      <trkpt lat="43.56868" lon="6.6603">
        <ele>219</ele>
        <time>2024-03-01T16:06:09Z</time>
      </trkpt>
      <trkpt lat="43.56873" lon="6.66033">
        <ele>219</ele>
        <time>2024-03-01T16:06:13Z</time>
      </trkpt>
      <trkpt lat="43.56876" lon="6.66037">
        <ele>218</ele>
        <time>2024-03-01T16:06:17Z</time>
      </trkpt>
      <trkpt lat="43.56879" lon="6.66044">
        <ele>218</ele>
        <time>2024-03-01T16:06:23Z</time>
      </trkpt>
      <trkpt lat="43.5688" lon="6.6605">
        <ele>218</ele>
        <time>2024-03-01T16:06:29Z</time>
      </trkpt>
      <trkpt lat="43.5688" lon="6.66058">
        <ele>216</ele>
        <time>2024-03-01T16:06:34Z</time>
      </trkpt>
      <trkpt lat="43.56882" lon="6.66071">
        <ele>216</ele>
        <time>2024-03-01T16:06:54Z</time>
      </trkpt>
      <trkpt lat="43.56888" lon="6.6608">
        <ele>216</ele>
        <time>2024-03-01T16:07:10Z</time>
      </trkpt>
      <trkpt lat="43.56896" lon="6.66084">
        <ele>216</ele>
        <time>2024-03-01T16:07:57Z</time>
      </trkpt>
      <trkpt lat="43.56901" lon="6.66088">
        <ele>216</ele>
        <time>2024-03-01T16:08:05Z</time>
      </trkpt>
      <trkpt lat="43.56927" lon="6.66088">
        <ele>217</ele>
        <time>2024-03-01T16:08:37Z</time>
      </trkpt>
      <trkpt lat="43.56955" lon="6.66092">
        <ele>214</ele>
        <time>2024-03-01T16:09:03Z</time>
      </trkpt>
      <trkpt lat="43.56966" lon="6.66097">
        <ele>215</ele>
        <time>2024-03-01T16:09:14Z</time>
      </trkpt>
    </trkseg>
  </trk>
</gpx>